Nearby METAR Reports

 

KRNT - Renton, Washington, USA
Distance from station: WNW 10mi, 17km
Updated: Mon, 12-Nov-2018 7:53pm PST
Clear
Clear
 Wind from SSE
Wind: SSE 3 mph , 6 km/h
Temperature: 52°F , 11°C
Dew Point: 25°F , -4°C
Humidity: 35%
Barometer: 30.35 inHg , 1027.8 hPa
Clouds: Clear
Visibility: 10 miles , 16 km
2018/11/13 03:53 KRNT 130353Z 16003KT 10SM CLR 11/M04 A3035 RMK AO2 SLP283 T01061039 $
KSEA - Seattle/Metro, Washington, USA
Distance from station: W 14mi, 23km
Updated: Mon, 12-Nov-2018 7:53pm PST
Mostly cloudy
Mostly cloudy
 Wind from ESE
Wind: ESE 13 mph , 20 km/h
Temperature: 52°F , 11°C
Dew Point: 25°F , -4°C
Humidity: 35%
Barometer: 30.35 inHg , 1027.8 hPa
Clouds: Mostly cloudy
Visibility: 10 miles , 16 km
Cloud details: Mostly cloudy 25000 ft
2018/11/13 03:53 KSEA 130353Z 12011KT 10SM BKN250 11/M04 A3035 RMK AO2 SLP287 T01111044 $
 
KBFI - Seattle/Boeing, Washington, USA
Distance from station: WNW 16mi, 26km
Updated: Mon, 12-Nov-2018 7:53pm PST
Mostly cloudy
Mostly cloudy
 Wind from SE
Wind: SE 5 mph , 7 km/h
Temperature: 46°F , 8°C
Wind Chill: 44°F , 7°C
Dew Point: 27°F , -3°C
Humidity: 46%
Barometer: 30.36 inHg , 1028.1 hPa
Clouds: Mostly cloudy
Visibility: 10 miles , 16 km
Cloud details: Mostly cloudy 25000 ft
2018/11/13 03:53 KBFI 130353Z 14004KT 10SM BKN250 08/M03 A3036 RMK AO2 SLP280 T00831033
KPLU - Puyallup/Thun, Washington, USA
Distance from station: SSW 27mi, 43km
Updated: Mon, 12-Nov-2018 8:15pm PST
Clear
Clear
 Wind from calm
Wind: Calm
Temperature: 39°F , 4°C
Dew Point: 39°F , 4°C
Humidity: 100%
Barometer: 30.35 inHg , 1027.8 hPa
Clouds: Clear
Visibility: 10 miles , 16 km
2018/11/13 04:15 KPLU 130415Z AUTO 00000KT 10SM CLR 04/04 A3035 RMK AO2
 
KTIW - Tacoma, Washington, USA
Distance from station: WSW 29mi, 47km
Updated: Mon, 12-Nov-2018 7:53pm PST
Clear
Clear
 Wind from calm
Wind: Calm
Temperature: 45°F , 7°C
Dew Point: 39°F , 4°C
Humidity: 81%
Barometer: 30.35 inHg , 1027.8 hPa
Clouds: Clear
Visibility: 10 miles , 16 km
2018/11/13 03:53 KTIW 130353Z 00000KT 10SM CLR 07/04 A3035 RMK AO2 SLP279 T00720044
KTCM - Tacoma/Mc Chord, Washington, USA
Distance from station: SW 31mi, 50km
Updated: Mon, 12-Nov-2018 7:58pm PST
Clear
Clear
 Wind from calm
Wind: Calm
Temperature: 36°F , 2°C
Dew Point: 36°F , 2°C
Humidity: 100%
Barometer: 30.35 inHg , 1027.8 hPa
Clouds: Clear
Visibility: 7 miles , 11 km
2018/11/13 03:58 KTCM 130358Z AUTO 00000KT 7SM CLR 02/02 A3035 RMK AO2 SLP285 T00240024 $
 
KPAE - Everett, Washington, USA
Distance from station: NNW 35mi, 56km
Updated: Mon, 12-Nov-2018 7:53pm PST
Clear
Clear
 Wind from ESE
Wind: ESE 7 mph , 11 km/h
Temperature: 50°F , 10°C
Wind Chill: 47°F , 8°C
Dew Point: 25°F , -4°C
Humidity: 37%
Barometer: 30.36 inHg , 1028.1 hPa
Clouds: Clear
Visibility: 10 miles , 16 km
2018/11/13 03:53 KPAE 130353Z 12006KT 10SM CLR 10/M04 A3036 RMK AO2 SLP281 T01001039
KPWT - Bremerton Ntnl, Washington, USA
Distance from station: W 35mi, 56km
Updated: Mon, 12-Nov-2018 7:56pm PST
Clear
Clear
 Wind from calm
Wind: Calm
Temperature: 37°F , 3°C
Dew Point: 34°F , 1°C
Humidity: 87%
Barometer: 30.35 inHg , 1027.8 hPa
Clouds: Clear
Visibility: 10 miles , 16 km
2018/11/13 03:56 KPWT 130356Z AUTO 00000KT 10SM CLR 03/01 A3035 RMK AO2 SLP296 T00330006
 
KGRF - Fort Lewis/Gray, Washington, USA
Distance from station: SW 37mi, 59km
Updated: Mon, 12-Nov-2018 7:58pm PST
Clear
Clear
 Wind from calm
Wind: Calm
Temperature: 37°F , 3°C
Dew Point: 37°F , 3°C
Humidity: 100%
Barometer: 30.35 inHg , 1027.8 hPa
Clouds: Clear
Visibility: 10 miles , 16 km
2018/11/13 03:58 KGRF 130358Z AUTO 00000KT 10SM CLR 03/03 A3035 RMK AO2 SLP284 T00250025 $